createdAt,value
2019-04-24T00:03:29.182Z,23.20
2019-04-24T00:04:47.643Z,24.40
2019-04-24T00:05:39.781Z,24.00
2019-04-24T00:06:24.747Z,24.80
2019-04-24T00:07:19.290Z,25.80
2019-04-24T00:08:30.245Z,25.30
2019-04-24T00:10:29.998Z,26.00
2019-04-24T00:12:27.620Z,27.60
2019-04-24T00:13:28.555Z,28.70
2019-04-24T00:14:33.570Z,27.90
2019-04-24T00:15:36.032Z,28.30
2019-04-24T00:16:30.786Z,29.50
2019-04-24T00:18:37.443Z,29.10
2019-04-24T00:20:57.652Z,29.90
2019-04-24T00:21:21.088Z,29.90
2019-04-24T00:22:18.189Z,29.90
2019-04-24T00:23:29.198Z,29.10
2019-04-24T00:24:38.730Z,28.50
2019-04-24T00:25:26.745Z,30.80
2019-04-24T00:26:19.668Z,31.10
2019-04-24T00:27:42.743Z,30.30
2019-04-24T00:29:26.073Z,29.10
2019-04-24T00:30:24.939Z,29.70
2019-04-24T00:32:21.846Z,23.50
2019-04-24T00:34:22.907Z,23.50
2019-04-24T00:35:28.101Z,21.90
2019-04-24T00:36:33.566Z,23.50
2019-04-24T00:37:29.617Z,25.20
2019-04-24T00:40:27.935Z,21.80
2019-04-24T00:42:41.093Z,21.20
2019-04-24T00:43:46.375Z,21.60
2019-04-24T00:44:16.945Z,23.00
2019-04-24T00:45:29.323Z,23.80
2019-04-24T00:46:37.849Z,22.70
2019-04-24T00:50:20.531Z,28.60
2019-04-24T00:51:32.699Z,26.70
2019-04-24T00:52:20.282Z,29.30
2019-04-24T00:54:21.418Z,30.30
2019-04-24T00:55:18.222Z,29.30
2019-04-24T00:56:32.051Z,31.00
2019-04-24T00:57:27.725Z,32.20
2019-04-24T00:58:24.426Z,30.20
2019-04-24T01:00:25.697Z,30.00
2019-04-24T01:02:25.034Z,29.80
2019-04-24T01:03:30.232Z,29.10
2019-04-24T01:05:33.563Z,30.00
2019-04-24T01:06:27.414Z,29.60
2019-04-24T01:09:28.840Z,28.90
2019-04-24T01:11:18.963Z,28.80
2019-04-24T01:12:34.537Z,27.20
2019-04-24T01:14:17.610Z,28.60
2019-04-24T01:17:30.250Z,28.00
2019-04-24T01:18:23.560Z,29.10
2019-04-24T01:19:28.016Z,29.20
2019-04-24T01:21:38.493Z,29.70
2019-04-24T01:23:18.864Z,29.20
2019-04-24T01:24:19.182Z,27.90
2019-04-24T01:26:22.495Z,26.40
2019-04-24T01:27:23.583Z,24.70
2019-04-24T01:28:27.790Z,26.60
2019-04-24T01:29:24.001Z,28.60
2019-04-24T01:30:51.445Z,33.60
2019-04-24T01:32:32.356Z,38.90
2019-04-24T01:33:26.466Z,31.00
2019-04-24T01:34:32.537Z,27.40
2019-04-24T01:35:26.096Z,23.90
2019-04-24T01:36:43.981Z,22.70
2019-04-24T01:38:30.567Z,19.50
2019-04-24T01:39:32.756Z,17.90
2019-04-24T01:40:19.369Z,17.70
2019-04-24T01:41:31.167Z,17.60
2019-04-24T01:42:55.094Z,18.00
2019-04-24T01:44:30.186Z,19.40
2019-04-24T01:46:23.472Z,19.70
2019-04-24T01:49:29.772Z,19.80
2019-04-24T01:50:57.439Z,20.20
2019-04-24T01:52:40.409Z,20.10
2019-04-24T01:53:23.921Z,21.30
2019-04-24T01:55:18.447Z,20.90
2019-04-24T01:56:42.252Z,20.60
2019-04-24T01:59:28.735Z,21.40
2019-04-24T02:00:39.104Z,20.80
2019-04-24T02:01:22.901Z,21.50
2019-04-24T02:03:19.581Z,21.90
2019-04-24T02:04:32.951Z,22.10
2019-04-24T02:05:26.722Z,23.10
2019-04-24T02:06:19.400Z,22.70
2019-04-24T02:08:29.545Z,22.50
2019-04-24T02:09:32.660Z,22.00
2019-04-24T02:10:44.726Z,21.20
2019-04-24T02:12:30.709Z,21.10
2019-04-24T02:14:37.713Z,19.50
2019-04-24T02:15:28.589Z,19.60
2019-04-24T02:16:22.372Z,19.70
2019-04-24T02:17:32.543Z,19.70
2019-04-24T02:19:29.524Z,20.70
2019-04-24T02:21:32.300Z,19.30
2019-04-24T02:22:31.364Z,18.80
2019-04-24T02:25:34.519Z,18.60
2019-04-24T02:26:28.432Z,18.70
2019-04-24T02:27:29.466Z,18.30
2019-04-24T02:29:26.242Z,17.70
2019-04-24T02:32:48.573Z,19.90
2019-04-24T02:35:47.069Z,17.80
2019-04-24T02:36:38.185Z,17.20
2019-04-24T02:38:39.988Z,17.60
2019-04-24T02:39:40.593Z,17.60
2019-04-24T02:40:42.149Z,17.20
2019-04-24T02:41:47.262Z,17.20
2019-04-24T02:46:37.735Z,19.10
2019-04-24T02:49:42.684Z,17.80
2019-04-24T02:50:31.832Z,18.30
2019-04-24T02:53:36.277Z,17.60
2019-04-24T02:55:16.833Z,17.80
2019-04-24T02:56:36.383Z,18.10
2019-04-24T02:57:37.503Z,17.50
2019-04-24T03:01:39.104Z,19.60
2019-04-24T03:02:59.973Z,18.60
2019-04-24T03:05:40.312Z,17.90
2019-04-24T03:06:40.589Z,19.30
2019-04-24T03:09:33.596Z,19.60
2019-04-24T03:13:01.513Z,19.30
2019-04-24T03:14:43.671Z,20.50
2019-04-24T03:15:40.096Z,19.30
2019-04-24T03:16:54.069Z,19.70
2019-04-24T03:18:35.641Z,19.30
2019-04-24T03:20:48.241Z,20.10
2019-04-24T03:22:35.024Z,20.10
2019-04-24T03:26:13.589Z,20.00
2019-04-24T03:27:02.215Z,20.10
2019-04-24T03:27:38.947Z,20.00
2019-04-24T03:28:35.304Z,19.90
2019-04-24T03:30:44.073Z,19.80
2019-04-24T03:33:59.959Z,20.00
2019-04-24T03:35:11.446Z,22.20
2019-04-24T03:36:09.521Z,19.90
2019-04-24T03:40:00.346Z,21.90
2019-04-24T03:41:14.288Z,22.00
2019-04-24T03:43:41.056Z,23.50
2019-04-24T03:46:27.578Z,23.10
2019-04-24T03:47:54.159Z,23.90
2019-04-24T03:48:39.376Z,24.20
2019-04-24T03:52:36.320Z,23.90
2019-04-24T03:54:32.867Z,23.50
2019-04-24T03:55:42.440Z,22.90
2019-04-24T03:56:30.840Z,23.30
2019-04-24T03:58:55.521Z,23.80
2019-04-24T04:00:43.630Z,23.30
2019-04-24T04:01:44.199Z,23.40
2019-04-24T04:02:48.279Z,25.00
2019-04-24T04:03:31.339Z,27.80
2019-04-24T04:07:38.710Z,39.40
2019-04-24T04:08:43.166Z,37.90
2019-04-24T04:09:50.505Z,37.30
2019-04-24T04:10:27.698Z,36.00
2019-04-24T04:11:38.311Z,35.50
2019-04-24T04:12:49.970Z,34.30
2019-04-24T04:16:43.105Z,31.80
2019-04-24T04:18:03.571Z,31.90
2019-04-24T04:19:42.136Z,30.50
2019-04-24T04:21:40.332Z,31.70
2019-04-24T04:22:49.426Z,31.80
2019-04-24T04:27:44.684Z,26.80
2019-04-24T04:28:39.848Z,26.30
2019-04-24T04:35:13.665Z,23.00
2019-04-24T04:37:59.419Z,20.90
2019-04-24T04:39:32.671Z,20.50
2019-04-24T04:41:39.574Z,20.70
2019-04-24T04:42:41.625Z,21.60
2019-04-24T04:43:49.060Z,21.20
2019-04-24T04:47:25.483Z,21.60
2019-04-24T04:49:50.971Z,21.10
2019-04-24T04:52:46.343Z,21.30
2019-04-24T04:55:32.715Z,21.90
2019-04-24T04:58:42.925Z,22.30
2019-04-24T05:00:35.517Z,21.80
2019-04-24T05:06:54.590Z,19.00
2019-04-24T05:11:46.866Z,18.20
2019-04-24T05:12:26.670Z,18.30
2019-04-24T05:13:51.430Z,17.00
2019-04-24T05:14:53.505Z,17.50
2019-04-24T05:15:39.962Z,16.80
2019-04-24T05:16:49.583Z,16.00
2019-04-24T05:17:40.467Z,16.20
2019-04-24T05:19:30.291Z,16.60
2019-04-24T05:20:31.195Z,15.70
2019-04-24T05:22:32.446Z,15.30
2019-04-24T05:23:43.238Z,15.60
2019-04-24T05:24:28.994Z,15.60
2019-04-24T05:27:04.911Z,14.50
2019-04-24T05:27:31.348Z,13.90
2019-04-24T05:28:39.339Z,15.60
2019-04-24T05:29:32.287Z,14.50
2019-04-24T05:30:25.315Z,14.40
2019-04-24T05:31:11.491Z,15.70
2019-04-24T05:32:45.104Z,14.90
2019-04-24T05:33:40.450Z,14.30
2019-04-24T05:34:40.703Z,15.40
2019-04-24T05:35:34.125Z,15.30
2019-04-24T05:36:20.567Z,14.10
2019-04-24T05:37:30.628Z,15.10
2019-04-24T05:38:30.985Z,14.60
2019-04-24T05:40:34.343Z,15.30
2019-04-24T05:41:24.966Z,14.90
2019-04-24T05:44:19.056Z,16.00
2019-04-24T05:45:32.346Z,16.00
2019-04-24T05:46:24.383Z,16.30
2019-04-24T05:47:36.055Z,15.80
2019-04-24T05:48:33.505Z,15.40
2019-04-24T05:49:25.758Z,15.50
2019-04-24T05:50:26.284Z,15.00
2019-04-24T05:52:36.059Z,15.60
2019-04-24T05:54:21.019Z,16.20
2019-04-24T05:55:42.384Z,15.60
2019-04-24T05:56:37.538Z,15.80
2019-04-24T05:57:49.079Z,15.70
2019-04-24T05:59:37.307Z,15.80
2019-04-24T06:00:29.291Z,15.00
2019-04-24T06:01:34.365Z,15.40
2019-04-24T06:03:36.631Z,15.60
2019-04-24T06:04:40.098Z,15.80
2019-04-24T06:05:28.420Z,15.80
2019-04-24T06:06:48.985Z,15.80
2019-04-24T06:07:53.804Z,15.80
2019-04-24T06:08:31.694Z,18.60
2019-04-24T06:09:21.717Z,19.80
2019-04-24T06:11:40.155Z,22.20
2019-04-24T06:12:27.603Z,22.60
2019-04-24T06:13:32.962Z,22.50
2019-04-24T06:14:31.395Z,22.80
2019-04-24T06:15:30.234Z,22.60
2019-04-24T06:16:26.696Z,22.40
2019-04-24T06:17:22.106Z,22.20
2019-04-24T06:19:26.146Z,21.80
2019-04-24T06:20:42.803Z,22.10
2019-04-24T06:23:37.199Z,22.20
2019-04-24T06:25:47.001Z,21.90
2019-04-24T06:26:42.019Z,22.10
2019-04-24T06:27:31.002Z,21.20
2019-04-24T06:29:01.710Z,20.40
2019-04-24T06:29:35.014Z,21.40
2019-04-24T06:30:27.607Z,19.40
2019-04-24T06:31:51.851Z,19.40
2019-04-24T06:32:31.283Z,18.50
2019-04-24T06:33:35.948Z,17.30
2019-04-24T06:34:30.629Z,18.30
2019-04-24T06:36:38.945Z,16.90
2019-04-24T06:37:25.859Z,17.10
2019-04-24T06:38:26.892Z,16.40
2019-04-24T06:39:35.644Z,17.00
2019-04-24T06:40:39.592Z,16.60
2019-04-24T06:41:33.120Z,16.10
2019-04-24T06:42:21.995Z,16.80
2019-04-24T06:43:16.510Z,16.80
2019-04-24T06:44:42.665Z,16.50
2019-04-24T06:46:27.906Z,16.90
2019-04-24T06:48:21.284Z,17.80
2019-04-24T06:50:50.535Z,17.80
2019-04-24T06:51:28.332Z,16.70
2019-04-24T06:52:28.440Z,17.20
2019-04-24T06:53:11.138Z,17.00
2019-04-24T06:54:18.605Z,16.30
2019-04-24T06:55:32.357Z,16.80
2019-04-24T06:56:31.780Z,16.90
2019-04-24T06:58:16.272Z,17.20
2019-04-24T06:59:28.120Z,17.50
2019-04-24T07:00:37.576Z,18.00
2019-04-24T07:01:37.997Z,17.20
2019-04-24T07:02:23.087Z,18.00
2019-04-24T07:04:44.459Z,17.10
2019-04-24T07:05:23.052Z,17.50
2019-04-24T07:06:35.011Z,18.40
2019-04-24T07:08:07.177Z,18.30
2019-04-24T07:09:31.879Z,18.00
2019-04-24T07:10:41.193Z,17.90
2019-04-24T07:12:27.962Z,17.50
2019-04-24T07:13:56.889Z,17.70
2019-04-24T07:14:19.093Z,18.20
2019-04-24T07:15:27.150Z,18.20
2019-04-24T07:16:27.196Z,18.40
2019-04-24T07:19:25.336Z,20.10
2019-04-24T07:20:38.462Z,19.80
2019-04-24T07:21:22.353Z,20.90
2019-04-24T07:22:19.702Z,20.00
2019-04-24T07:23:24.605Z,20.80
2019-04-24T07:24:31.649Z,20.90
2019-04-24T07:25:36.928Z,22.00
2019-04-24T07:28:33.762Z,22.20
2019-04-24T07:29:26.857Z,23.70
2019-04-24T07:30:37.360Z,25.80
2019-04-24T07:32:23.510Z,28.40
2019-04-24T07:33:29.222Z,25.50
2019-04-24T07:34:34.369Z,27.10
2019-04-24T07:36:27.949Z,26.50
2019-04-24T07:37:31.100Z,28.00
2019-04-24T07:38:23.284Z,27.20
2019-04-24T07:39:30.038Z,28.00
2019-04-24T07:40:12.730Z,29.00
2019-04-24T07:42:19.503Z,30.50
2019-04-24T07:45:25.866Z,31.50
2019-04-24T07:46:29.703Z,33.00
2019-04-24T07:48:19.531Z,32.30
2019-04-24T07:49:19.008Z,34.20
2019-04-24T07:50:39.140Z,33.10
2019-04-24T07:51:30.873Z,35.20
2019-04-24T07:52:28.915Z,34.60
2019-04-24T07:53:48.790Z,32.40
2019-04-24T07:54:46.131Z,35.90
2019-04-24T07:55:17.929Z,38.20
2019-04-24T07:56:37.437Z,39.50
2019-04-24T07:57:29.247Z,37.70
2019-04-24T07:58:38.578Z,37.90
2019-04-24T08:00:21.843Z,38.30
2019-04-24T08:01:30.445Z,41.00
2019-04-24T08:03:24.586Z,41.00
2019-04-24T08:04:34.792Z,43.70
2019-04-24T08:05:18.145Z,40.80
2019-04-24T08:07:28.731Z,46.20
2019-04-24T08:08:47.877Z,43.50
2019-04-24T08:10:04.087Z,50.80
2019-04-24T08:10:25.435Z,46.80
2019-04-24T08:11:17.588Z,46.20
2019-04-24T08:12:23.716Z,46.30
2019-04-24T08:14:55.737Z,49.40
2019-04-24T08:16:14.973Z,44.40
2019-04-24T08:18:27.834Z,48.60
2019-04-24T08:19:34.652Z,45.40
2019-04-24T08:20:27.077Z,50.60
2019-04-24T08:21:11.350Z,49.30
2019-04-24T08:22:36.590Z,45.00
2019-04-24T08:23:29.095Z,48.20
2019-04-24T08:24:36.383Z,55.20
2019-04-24T08:25:24.802Z,52.60
2019-04-24T08:26:10.109Z,50.80
2019-04-24T08:28:40.649Z,51.70
2019-04-24T08:29:24.693Z,49.40
2019-04-24T08:30:44.135Z,50.20
2019-04-24T08:31:31.309Z,47.80
2019-04-24T08:32:26.873Z,50.20
2019-04-24T08:33:38.622Z,49.30
2019-04-24T08:34:41.226Z,48.00
2019-04-24T08:35:40.001Z,48.00
2019-04-24T08:36:26.880Z,50.50
2019-04-24T08:37:31.667Z,53.20
2019-04-24T08:40:19.213Z,52.90
2019-04-24T08:41:39.573Z,54.50
2019-04-24T08:44:30.181Z,49.60
2019-04-24T08:45:18.025Z,52.90
2019-04-24T08:46:28.481Z,50.80
2019-04-24T08:47:28.948Z,49.70
2019-04-24T08:48:39.812Z,51.70
2019-04-24T08:49:42.254Z,48.10
2019-04-24T08:50:44.120Z,48.40
2019-04-24T08:51:23.964Z,47.00
2019-04-24T08:53:24.824Z,52.70
2019-04-24T08:55:32.744Z,49.10
2019-04-24T08:56:29.902Z,52.00
2019-04-24T08:57:25.502Z,50.80
2019-04-24T08:59:42.829Z,49.40
2019-04-24T09:00:41.545Z,51.50
2019-04-24T09:01:26.947Z,48.90
2019-04-24T09:02:22.193Z,51.50
2019-04-24T09:04:34.292Z,50.70
2019-04-24T09:05:09.598Z,47.10
2019-04-24T09:06:11.550Z,49.90
2019-04-24T09:07:31.688Z,49.80
2019-04-24T09:08:21.427Z,46.20
2019-04-24T09:09:36.492Z,53.50
2019-04-24T09:12:32.566Z,52.50
2019-04-24T09:13:28.669Z,52.30
2019-04-24T09:14:22.019Z,49.90
2019-04-24T09:15:27.048Z,51.70
2019-04-24T09:17:18.725Z,54.40
2019-04-24T09:18:22.338Z,52.40
2019-04-24T09:19:20.071Z,48.70
2019-04-24T09:21:17.069Z,48.00
2019-04-24T09:22:36.438Z,48.00
2019-04-24T09:23:47.059Z,52.80
2019-04-24T09:24:28.772Z,47.70
2019-04-24T09:25:30.098Z,49.90
2019-04-24T09:26:46.204Z,47.50
2019-04-24T09:28:26.637Z,48.90
2019-04-24T09:29:39.206Z,49.10
2019-04-24T09:30:20.066Z,48.60
2019-04-24T09:31:19.218Z,47.10
2019-04-24T09:32:44.171Z,46.90
2019-04-24T09:33:26.815Z,53.20
2019-04-24T09:34:37.284Z,47.70
2019-04-24T09:35:43.627Z,49.90
2019-04-24T09:38:34.662Z,52.80
2019-04-24T09:39:27.547Z,48.80
2019-04-24T09:40:47.587Z,50.60
2019-04-24T09:42:47.539Z,50.90
2019-04-24T09:43:27.895Z,54.10
2019-04-24T09:44:23.160Z,49.30
2019-04-24T09:45:19.939Z,50.70
2019-04-24T09:46:29.098Z,51.00
2019-04-24T09:47:24.191Z,52.80
2019-04-24T09:49:07.454Z,51.90
2019-04-24T09:53:40.111Z,53.90
2019-04-24T09:54:20.787Z,49.40
2019-04-24T09:55:33.260Z,49.60
2019-04-24T09:56:17.955Z,48.90
2019-04-24T09:58:34.097Z,50.90
2019-04-24T09:59:24.358Z,52.00
2019-04-24T10:00:17.999Z,50.20
2019-04-24T10:02:27.731Z,54.00
2019-04-24T10:03:31.760Z,52.20
2019-04-24T10:08:21.123Z,55.40
2019-04-24T10:10:24.631Z,50.00
2019-04-24T10:11:39.023Z,53.60
2019-04-24T10:12:36.278Z,54.20
2019-04-24T10:13:11.852Z,51.50
2019-04-24T10:14:18.668Z,53.90
2019-04-24T10:15:25.809Z,58.20
2019-04-24T10:16:11.085Z,53.30
2019-04-24T10:17:39.410Z,53.90
2019-04-24T10:18:24.458Z,50.80
2019-04-24T10:19:37.281Z,49.70
2019-04-24T10:20:22.558Z,53.40
2019-04-24T10:21:12.193Z,52.50
2019-04-24T10:22:16.498Z,54.20
2019-04-24T10:23:14.811Z,49.50
2019-04-24T10:24:10.461Z,51.30
2019-04-24T10:25:17.359Z,53.40
2019-04-24T10:26:23.002Z,51.80
2019-04-24T10:27:23.278Z,51.80
2019-04-24T10:29:29.321Z,50.00
2019-04-24T10:30:13.767Z,51.40
2019-04-24T10:31:19.002Z,51.40
2019-04-24T10:34:19.201Z,49.30
2019-04-24T10:35:26.794Z,51.00
2019-04-24T10:36:23.768Z,48.00
2019-04-24T10:37:22.695Z,51.90
2019-04-24T10:39:39.996Z,51.00
2019-04-24T10:41:18.983Z,51.50
2019-04-24T10:42:16.321Z,50.00
2019-04-24T10:43:17.488Z,52.40
2019-04-24T10:46:22.784Z,50.50
2019-04-24T10:49:31.845Z,48.60
2019-04-24T10:50:19.854Z,51.50
2019-04-24T10:51:17.941Z,49.60
2019-04-24T10:52:11.932Z,45.70
2019-04-24T10:53:25.436Z,53.00
2019-04-24T10:54:13.900Z,52.00
2019-04-24T10:55:31.026Z,51.00
2019-04-24T10:57:25.164Z,51.00
2019-04-24T10:58:15.940Z,53.00
2019-04-24T10:59:16.696Z,50.10
2019-04-24T11:00:17.845Z,54.90
2019-04-24T11:01:26.905Z,52.10
2019-04-24T11:02:28.045Z,49.90
2019-04-24T11:03:32.108Z,52.20
2019-04-24T11:04:16.094Z,50.40
2019-04-24T11:05:45.024Z,46.30
2019-04-24T11:06:33.620Z,48.40
2019-04-24T11:09:29.892Z,46.20
2019-04-24T11:11:19.361Z,48.90
2019-04-24T11:14:17.364Z,44.00
2019-04-24T11:15:25.563Z,41.30
2019-04-24T11:16:30.847Z,38.80
2019-04-24T11:17:23.873Z,39.60
2019-04-24T11:18:20.665Z,37.90
2019-04-24T11:19:38.480Z,37.00
2019-04-24T11:20:22.265Z,37.70
2019-04-24T11:21:45.582Z,35.00
2019-04-24T11:22:19.170Z,35.90
2019-04-24T11:23:20.255Z,31.90
2019-04-24T11:24:39.513Z,39.10
2019-04-24T11:25:32.368Z,43.80
2019-04-24T11:28:30.965Z,65.60
2019-04-24T11:29:18.960Z,85.50
2019-04-24T11:31:20.271Z,40.60
2019-04-24T11:32:22.873Z,39.40
2019-04-24T11:33:33.342Z,33.10
2019-04-24T11:34:49.205Z,32.30
2019-04-24T11:35:28.487Z,36.00
2019-04-24T11:37:26.523Z,31.10
2019-04-24T11:38:19.568Z,29.40
2019-04-24T11:41:26.594Z,29.00
2019-04-24T11:42:08.451Z,26.30
2019-04-24T11:43:13.670Z,25.20
2019-04-24T11:44:16.088Z,27.10
2019-04-24T11:46:41.782Z,24.50
2019-04-24T11:48:19.898Z,22.40
2019-04-24T11:49:24.848Z,20.50
2019-04-24T11:51:06.509Z,20.70
2019-04-24T11:52:19.858Z,20.10
2019-04-24T11:54:29.916Z,18.40
2019-04-24T11:55:23.768Z,20.10
2019-04-24T11:56:20.364Z,18.90
2019-04-24T11:57:41.217Z,21.20
2019-04-24T11:58:29.429Z,20.10
2019-04-24T11:58:51.329Z,18.30
2019-04-24T12:00:01.768Z,20.30
2019-04-24T12:01:08.272Z,17.60
2019-04-24T12:02:26.833Z,18.10
2019-04-24T12:03:13.580Z,16.50
2019-04-24T12:04:40.146Z,17.10
2019-04-24T12:06:23.946Z,17.40
2019-04-24T12:07:38.515Z,17.10
2019-04-24T12:08:12.830Z,14.90
2019-04-24T12:10:22.371Z,14.70
2019-04-24T12:12:08.098Z,12.40
2019-04-24T12:14:16.243Z,12.50
2019-04-24T12:15:22.384Z,14.30
2019-04-24T12:16:10.973Z,14.70
2019-04-24T12:17:05.170Z,16.70
2019-04-24T12:18:16.264Z,15.40
2019-04-24T12:19:21.437Z,15.30
2019-04-24T12:20:19.601Z,14.50
2019-04-24T12:22:10.105Z,12.60
2019-04-24T12:23:17.125Z,14.70
2019-04-24T12:25:10.848Z,13.20
2019-04-24T12:27:04.962Z,20.00
2019-04-24T12:28:17.419Z,23.40
2019-04-24T12:30:13.243Z,24.80
2019-04-24T12:31:18.777Z,23.70
2019-04-24T12:32:09.973Z,24.00
2019-04-24T12:33:06.301Z,23.60
2019-04-24T12:34:16.915Z,21.80
2019-04-24T12:37:12.140Z,20.10
2019-04-24T12:38:12.397Z,19.80
2019-04-24T12:39:25.601Z,20.00
2019-04-24T12:40:18.605Z,19.00
2019-04-24T12:41:09.924Z,17.10
2019-04-24T12:42:39.406Z,20.40
2019-04-24T12:43:13.585Z,18.10
2019-04-24T12:45:24.683Z,19.40
2019-04-24T12:48:06.394Z,19.50
2019-04-24T12:49:25.423Z,18.60
2019-04-24T12:51:10.504Z,18.40
2019-04-24T12:52:06.521Z,22.20
2019-04-24T12:53:25.199Z,19.70
2019-04-24T12:55:16.032Z,19.70
2019-04-24T12:56:15.410Z,19.20
2019-04-24T12:58:28.999Z,20.30
2019-04-24T13:00:11.672Z,20.40
2019-04-24T13:01:20.466Z,23.20
2019-04-24T13:02:12.214Z,20.70
2019-04-24T13:03:15.406Z,18.80
2019-04-24T13:05:25.028Z,20.20
2019-04-24T13:07:37.713Z,18.70
2019-04-24T13:12:27.424Z,17.40
2019-04-24T13:13:17.066Z,17.90
2019-04-24T13:14:23.913Z,17.70
2019-04-24T13:16:13.494Z,16.70
2019-04-24T13:18:15.540Z,17.30
2019-04-24T13:19:14.292Z,16.50
2019-04-24T13:19:48.457Z,16.00
2019-04-24T13:20:49.524Z,15.80
2019-04-24T13:21:54.415Z,17.20
2019-04-24T13:22:58.114Z,16.70
2019-04-24T13:24:01.407Z,15.30
2019-04-24T13:25:13.534Z,15.10
2019-04-24T13:26:17.513Z,14.60
2019-04-24T13:27:16.226Z,15.20
2019-04-24T13:28:49.548Z,14.70
2019-04-24T13:30:17.988Z,16.60
2019-04-24T13:31:23.517Z,16.70
2019-04-24T13:32:17.171Z,17.90
2019-04-24T13:33:27.123Z,16.30
2019-04-24T13:34:19.940Z,14.70
2019-04-24T13:36:36.833Z,16.70
2019-04-24T13:37:16.193Z,18.00
2019-04-24T13:38:22.779Z,17.00
2019-04-24T13:39:28.129Z,15.80
2019-04-24T13:40:07.630Z,17.60
2019-04-24T13:41:14.313Z,16.80
2019-04-24T13:42:17.743Z,15.80
2019-04-24T13:43:26.700Z,15.00
2019-04-24T13:44:19.666Z,15.80
2019-04-24T13:45:32.389Z,17.70
2019-04-24T13:46:26.939Z,16.90
2019-04-24T13:47:18.523Z,16.00
2019-04-24T13:48:23.715Z,14.50
2019-04-24T13:49:13.525Z,17.50
2019-04-24T13:50:18.091Z,17.10
2019-04-24T13:51:16.495Z,16.00
2019-04-24T13:54:37.298Z,17.00
2019-04-24T13:55:23.579Z,16.30
2019-04-24T13:56:09.322Z,15.10
2019-04-24T13:57:15.198Z,15.30
2019-04-24T13:58:22.158Z,16.90
2019-04-24T13:59:35.650Z,18.70
2019-04-24T14:00:40.121Z,18.00
2019-04-24T14:01:31.272Z,18.20
2019-04-24T14:02:24.787Z,16.70
2019-04-24T14:04:15.854Z,17.00
2019-04-24T14:05:18.391Z,16.10
2019-04-24T14:06:27.271Z,16.20
2019-04-24T14:09:28.662Z,14.90
2019-04-24T14:12:28.962Z,15.70
2019-04-24T14:13:34.981Z,13.10
2019-04-24T14:16:16.438Z,13.20
2019-04-24T14:17:16.539Z,13.30
2019-04-24T14:21:18.775Z,16.90
2019-04-24T14:22:14.471Z,16.50
2019-04-24T14:23:31.679Z,17.10
2019-04-24T14:24:22.652Z,18.90
2019-04-24T14:26:23.087Z,17.50
2019-04-24T14:27:17.473Z,18.00
2019-04-24T14:28:27.675Z,17.40
2019-04-24T14:29:16.435Z,17.60
2019-04-24T14:30:19.111Z,18.40
2019-04-24T14:31:17.051Z,19.10
2019-04-24T14:35:31.940Z,19.80
2019-04-24T14:37:15.331Z,20.40
2019-04-24T14:38:25.698Z,18.90
2019-04-24T14:39:23.605Z,18.40
2019-04-24T14:41:23.737Z,20.20
2019-04-24T14:42:33.810Z,20.50
2019-04-24T14:45:29.862Z,18.00
2019-04-24T14:46:33.286Z,18.40
2019-04-24T14:47:24.441Z,18.60
2019-04-24T14:48:18.244Z,17.80
2019-04-24T14:50:26.301Z,19.10
2019-04-24T14:51:19.742Z,19.10
2019-04-24T14:52:29.298Z,18.20
2019-04-24T14:53:19.078Z,18.40
2019-04-24T14:54:21.857Z,16.80
2019-04-24T14:55:23.030Z,18.20
2019-04-24T14:56:19.010Z,18.00
2019-04-24T14:57:22.212Z,19.50
2019-04-24T14:58:19.623Z,20.60
2019-04-24T14:59:41.434Z,19.90
2019-04-24T15:00:43.432Z,18.20
2019-04-24T15:01:17.779Z,17.60
2019-04-24T15:02:17.130Z,20.60
2019-04-24T15:03:16.904Z,21.90
2019-04-24T15:05:18.790Z,26.60
2019-04-24T15:06:23.687Z,25.40
2019-04-24T15:07:20.863Z,29.00
2019-04-24T15:08:16.975Z,31.40
2019-04-24T15:09:32.473Z,31.20
2019-04-24T15:11:23.470Z,29.20
2019-04-24T15:14:11.251Z,26.40
2019-04-24T15:15:21.974Z,27.30
2019-04-24T15:16:36.872Z,27.80
2019-04-24T15:17:25.334Z,30.40
2019-04-24T15:21:16.247Z,34.90
2019-04-24T15:24:41.066Z,28.70
2019-04-24T15:26:33.639Z,28.20
2019-04-24T15:27:19.137Z,27.00
2019-04-24T15:28:17.355Z,26.20
2019-04-24T15:30:14.741Z,27.70
2019-04-24T15:31:12.607Z,27.70
2019-04-24T15:32:20.016Z,35.30
2019-04-24T15:33:16.128Z,44.50
2019-04-24T15:35:25.126Z,43.70
2019-04-24T15:36:22.488Z,43.20
2019-04-24T15:37:26.943Z,37.50
2019-04-24T15:38:31.480Z,37.80
2019-04-24T15:39:23.183Z,34.20
2019-04-24T15:41:24.722Z,27.00
2019-04-24T15:42:14.809Z,27.40
2019-04-24T15:44:16.106Z,29.00
2019-04-24T15:45:15.204Z,31.00
2019-04-24T15:47:34.088Z,31.80
2019-04-24T15:48:27.835Z,32.40
2019-04-24T15:49:18.034Z,29.50
2019-04-24T15:50:27.500Z,32.50
2019-04-24T15:51:16.905Z,30.20
2019-04-24T15:51:47.946Z,34.10
2019-04-24T15:52:48.040Z,32.80
2019-04-24T15:53:47.932Z,31.70
2019-04-24T15:54:47.913Z,35.60
2019-04-24T15:55:47.936Z,35.80
2019-04-24T15:56:47.929Z,34.40
2019-04-24T15:57:49.750Z,36.90
2019-04-24T15:58:58.560Z,37.40
2019-04-24T16:00:13.664Z,37.20
2019-04-24T16:01:20.529Z,34.30
2019-04-24T16:02:20.931Z,36.50
2019-04-24T16:03:23.480Z,41.10
2019-04-24T16:04:17.791Z,35.10
2019-04-24T16:04:55.982Z,39.60
2019-04-24T16:05:47.892Z,36.60
2019-04-24T16:06:47.888Z,35.40
2019-04-24T16:07:47.855Z,35.50
2019-04-24T16:08:47.868Z,33.70
2019-04-24T16:09:47.877Z,33.20
2019-04-24T16:10:47.868Z,33.80
2019-04-24T16:11:47.861Z,33.10
2019-04-24T16:12:47.949Z,32.80
2019-04-24T16:13:56.061Z,30.10
2019-04-24T16:15:36.141Z,32.60
2019-04-24T16:16:17.722Z,35.10
2019-04-24T16:17:11.361Z,34.30
2019-04-24T16:18:19.098Z,36.00
2019-04-24T16:20:10.679Z,35.80
2019-04-24T16:22:16.583Z,37.30
2019-04-24T16:24:34.657Z,36.50
2019-04-24T16:25:25.214Z,34.10
2019-04-24T16:26:17.475Z,32.30
2019-04-24T16:27:20.979Z,33.40
2019-04-24T16:28:14.277Z,35.60
2019-04-24T16:29:16.477Z,32.30
2019-04-24T16:30:09.096Z,34.60
2019-04-24T16:32:35.834Z,34.20
2019-04-24T16:33:19.635Z,34.60
2019-04-24T16:35:15.313Z,32.90
2019-04-24T16:36:24.595Z,38.00
2019-04-24T16:38:20.202Z,32.40
2019-04-24T16:40:30.012Z,33.70
2019-04-24T16:41:22.633Z,35.10
2019-04-24T16:46:45.788Z,31.90
2019-04-24T16:47:19.694Z,32.70
2019-04-24T16:49:19.208Z,32.30
2019-04-24T16:52:16.261Z,32.90
2019-04-24T16:53:16.248Z,32.30
2019-04-24T16:54:17.148Z,33.80
2019-04-24T16:56:25.114Z,35.30
2019-04-24T16:57:13.796Z,36.80
2019-04-24T16:58:15.415Z,39.50
2019-04-24T17:00:21.857Z,38.50
2019-04-24T17:02:09.680Z,38.20
2019-04-24T17:03:22.605Z,37.80
2019-04-24T17:06:22.328Z,36.10
2019-04-24T17:11:22.560Z,36.70
2019-04-24T17:13:20.493Z,37.50
2019-04-24T17:15:13.604Z,39.20
2019-04-24T17:16:20.165Z,38.10
2019-04-24T17:17:33.130Z,37.70
2019-04-24T17:20:16.781Z,35.60
2019-04-24T17:22:28.751Z,33.90
2019-04-24T17:23:19.099Z,35.70
2019-04-24T17:24:19.077Z,34.30
2019-04-24T17:27:14.868Z,32.90
2019-04-24T17:28:17.180Z,33.40
2019-04-24T17:31:20.438Z,34.50
2019-04-24T17:32:19.555Z,32.80
2019-04-24T17:33:14.050Z,34.10
2019-04-24T17:34:24.743Z,34.00
2019-04-24T17:36:47.454Z,33.80
2019-04-24T17:37:47.476Z,35.00
2019-04-24T17:38:47.441Z,34.10
2019-04-24T17:39:47.437Z,33.80
2019-04-24T17:40:47.433Z,32.20
2019-04-24T17:41:55.243Z,33.00
2019-04-24T17:43:06.797Z,32.10
2019-04-24T17:45:16.222Z,31.80
2019-04-24T17:46:21.939Z,32.80
2019-04-24T17:47:20.207Z,32.20
2019-04-24T17:48:12.954Z,32.40
2019-04-24T17:49:24.645Z,30.80
2019-04-24T17:51:28.239Z,30.80
2019-04-24T17:52:27.845Z,28.70
2019-04-24T17:55:11.167Z,28.50
2019-04-24T17:57:12.959Z,28.70
2019-04-24T17:57:48.800Z,27.40
2019-04-24T17:58:47.328Z,24.30
2019-04-24T17:59:47.501Z,22.90
2019-04-24T18:00:47.325Z,23.90
2019-04-24T18:01:47.338Z,25.30
2019-04-24T18:02:47.311Z,25.10
2019-04-24T18:03:47.309Z,24.50
2019-04-24T18:04:47.295Z,25.60
2019-04-24T18:05:47.353Z,25.50
2019-04-24T18:06:47.303Z,24.80
2019-04-24T18:07:47.337Z,24.10
2019-04-24T18:08:47.281Z,26.30
2019-04-24T18:09:47.275Z,25.90
2019-04-24T18:10:47.309Z,24.50
2019-04-24T18:11:47.280Z,23.60
2019-04-24T18:12:47.278Z,23.90
2019-04-24T18:13:47.272Z,24.80
2019-04-24T18:14:47.256Z,24.40
2019-04-24T18:15:47.233Z,24.00
2019-04-24T18:16:47.257Z,24.70
2019-04-24T18:17:47.231Z,25.90
2019-04-24T18:18:47.239Z,23.40
2019-04-24T18:19:47.233Z,23.20